sensor_id;sensor_type;location;lat;lon;timestamp;temperature;humidity
40123;DHT22;25832;45.490;4.912;2024-01-16T00:00:07;-1.10;99.90
40123;DHT22;25832;45.490;4.912;2024-01-16T00:02:34;-1.10;99.90
40123;DHT22;25832;45.490;4.912;2024-01-16T00:05:00;-1.00;99.90
40123;DHT22;25832;45.490;4.912;2024-01-16T00:07:25;-0.90;99.90
40123;DHT22;25832;45.490;4.912;2024-01-16T00:09:51;-0.90;99.90
40123;DHT22;25832;45.490;4.912;2024-01-16T00:12:19;-0.80;99.90
40123;DHT22;25832;45.490;4.912;2024-01-16T00:14:44;-0.80;99.90
40123;DHT22;25832;45.490;4.912;2024-01-16T00:17:10;-0.80;99.90
40123;DHT22;25832;45.490;4.912;2024-01-16T00:19:36;-0.70;99.90
40123;DHT22;25832;45.490;4.912;2024-01-16T00:22:02;-0.70;99.90
40123;DHT22;25832;45.490;4.912;2024-01-16T00:24:30;-0.70;99.90
40123;DHT22;25832;45.490;4.912;2024-01-16T00:26:56;-0.60;99.90
40123;DHT22;25832;45.490;4.912;2024-01-16T00:29:21;-0.70;99.90
40123;DHT22;25832;45.490;4.912;2024-01-16T00:31:47;-0.60;99.90
40123;DHT22;25832;45.490;4.912;2024-01-16T00:34:12;-0.60;99.90
40123;DHT22;25832;45.490;4.912;2024-01-16T00:36:38;-0.60;99.90
40123;DHT22;25832;45.490;4.912;2024-01-16T00:39:04;-0.60;99.90
40123;DHT22;25832;45.490;4.912;2024-01-16T00:41:29;-0.60;99.90
40123;DHT22;25832;45.490;4.912;2024-01-16T00:43:55;-0.60;99.90
40123;DHT22;25832;45.490;4.912;2024-01-16T00:46:20;-0.60;99.90
40123;DHT22;25832;45.490;4.912;2024-01-16T00:48:46;-0.50;99.90
40123;DHT22;25832;45.490;4.912;2024-01-16T00:51:13;-0.60;99.90
40123;DHT22;25832;45.490;4.912;2024-01-16T00:53:42;-0.60;99.90
40123;DHT22;25832;45.490;4.912;2024-01-16T00:56:08;-0.70;99.90
40123;DHT22;25832;45.490;4.912;2024-01-16T00:58:34;-0.70;99.90
40123;DHT22;25832;45.490;4.912;2024-01-16T01:01:00;-0.70;99.90
40123;DHT22;25832;45.490;4.912;2024-01-16T01:03:25;-0.80;99.90
40123;DHT22;25832;45.490;4.912;2024-01-16T01:05:51;-0.70;99.90
40123;DHT22;25832;45.490;4.912;2024-01-16T01:08:17;-0.70;99.90
40123;DHT22;25832;45.490;4.912;2024-01-16T01:10:43;-0.70;99.90
40123;DHT22;25832;45.490;4.912;2024-01-16T01:13:08;-0.70;99.90
40123;DHT22;25832;45.490;4.912;2024-01-16T01:15:34;-0.60;99.90
40123;DHT22;25832;45.490;4.912;2024-01-16T01:18:00;-0.60;99.90
40123;DHT22;25832;45.490;4.912;2024-01-16T01:20:25;-0.60;99.90
40123;DHT22;25832;45.490;4.912;2024-01-16T01:22:51;-0.60;99.90
40123;DHT22;25832;45.490;4.912;2024-01-16T01:25:17;-0.60;99.90
40123;DHT22;25832;45.490;4.912;2024-01-16T01:27:42;-0.60;99.90
40123;DHT22;25832;45.490;4.912;2024-01-16T01:30:09;-0.50;99.90
40123;DHT22;25832;45.490;4.912;2024-01-16T01:32:36;-0.50;99.90
40123;DHT22;25832;45.490;4.912;2024-01-16T01:35:02;-0.50;99.90
40123;DHT22;25832;45.490;4.912;2024-01-16T01:37:27;-0.50;99.90
40123;DHT22;25832;45.490;4.912;2024-01-16T01:39:53;-0.40;99.90
40123;DHT22;25832;45.490;4.912;2024-01-16T01:42:19;-0.50;99.90
40123;DHT22;25832;45.490;4.912;2024-01-16T01:44:45;-0.50;99.90
40123;DHT22;25832;45.490;4.912;2024-01-16T01:47:10;-0.50;99.90
40123;DHT22;25832;45.490;4.912;2024-01-16T01:49:36;-0.40;99.90
40123;DHT22;25832;45.490;4.912;2024-01-16T01:52:04;-0.40;99.90
40123;DHT22;25832;45.490;4.912;2024-01-16T01:54:31;-0.40;99.90
40123;DHT22;25832;45.490;4.912;2024-01-16T01:56:57;-0.50;99.90
40123;DHT22;25832;45.490;4.912;2024-01-16T01:59:23;-0.50;99.90
40123;DHT22;25832;45.490;4.912;2024-01-16T02:01:50;-0.50;99.90
40123;DHT22;25832;45.490;4.912;2024-01-16T02:04:19;-0.60;99.90
40123;DHT22;25832;45.490;4.912;2024-01-16T02:06:45;-0.60;99.90
40123;DHT22;25832;45.490;4.912;2024-01-16T02:09:12;-0.60;99.90
40123;DHT22;25832;45.490;4.912;2024-01-16T02:11:39;-0.60;99.90
40123;DHT22;25832;45.490;4.912;2024-01-16T02:14:05;-0.70;99.90
40123;DHT22;25832;45.490;4.912;2024-01-16T02:16:36;-0.70;99.90
40123;DHT22;25832;45.490;4.912;2024-01-16T02:19:05;-0.80;99.90
40123;DHT22;25832;45.490;4.912;2024-01-16T02:21:48;-0.80;99.90
40123;DHT22;25832;45.490;4.912;2024-01-16T02:24:15;-0.90;99.90
40123;DHT22;25832;45.490;4.912;2024-01-16T02:26:42;-1.00;99.90
40123;DHT22;25832;45.490;4.912;2024-01-16T02:29:08;-1.00;99.90
40123;DHT22;25832;45.490;4.912;2024-01-16T02:31:34;-1.00;99.90
40123;DHT22;25832;45.490;4.912;2024-01-16T02:34:00;-1.00;99.90
40123;DHT22;25832;45.490;4.912;2024-01-16T02:36:27;-1.00;99.90
40123;DHT22;25832;45.490;4.912;2024-01-16T02:38:53;-1.00;99.90
40123;DHT22;25832;45.490;4.912;2024-01-16T02:41:19;-1.00;99.90
40123;DHT22;25832;45.490;4.912;2024-01-16T02:43:45;-0.90;99.90
40123;DHT22;25832;45.490;4.912;2024-01-16T02:46:11;-0.90;99.90
40123;DHT22;25832;45.490;4.912;2024-01-16T02:48:37;-0.90;99.90
40123;DHT22;25832;45.490;4.912;2024-01-16T02:51:03;-1.00;99.90
40123;DHT22;25832;45.490;4.912;2024-01-16T02:53:30;-1.00;99.90
40123;DHT22;25832;45.490;4.912;2024-01-16T02:55:56;-0.90;99.90
40123;DHT22;25832;45.490;4.912;2024-01-16T02:58:29;-0.90;99.90
40123;DHT22;25832;45.490;4.912;2024-01-16T03:00:54;-0.80;99.90
40123;DHT22;25832;45.490;4.912;2024-01-16T03:03:21;-0.80;99.90
40123;DHT22;25832;45.490;4.912;2024-01-16T03:05:47;-0.80;99.90
40123;DHT22;25832;45.490;4.912;2024-01-16T03:08:13;-0.80;99.90
40123;DHT22;25832;45.490;4.912;2024-01-16T03:10:39;-0.80;99.90
40123;DHT22;25832;45.490;4.912;2024-01-16T03:13:05;-0.80;99.90
40123;DHT22;25832;45.490;4.912;2024-01-16T03:15:30;-0.70;99.90
40123;DHT22;25832;45.490;4.912;2024-01-16T03:17:59;-0.70;99.90
40123;DHT22;25832;45.490;4.912;2024-01-16T03:20:26;-0.60;99.90
40123;DHT22;25832;45.490;4.912;2024-01-16T03:22:52;-0.50;99.90
40123;DHT22;25832;45.490;4.912;2024-01-16T03:25:19;-0.50;99.90
40123;DHT22;25832;45.490;4.912;2024-01-16T03:27:45;-0.50;99.90
40123;DHT22;25832;45.490;4.912;2024-01-16T03:30:10;-0.50;99.90
40123;DHT22;25832;45.490;4.912;2024-01-16T03:32:37;-0.60;99.90
40123;DHT22;25832;45.490;4.912;2024-01-16T03:35:03;-0.60;99.90
40123;DHT22;25832;45.490;4.912;2024-01-16T03:37:29;-0.70;99.90
40123;DHT22;25832;45.490;4.912;2024-01-16T03:39:55;-0.80;99.90
40123;DHT22;25832;45.490;4.912;2024-01-16T03:42:22;-0.80;99.90
40123;DHT22;25832;45.490;4.912;2024-01-16T03:44:48;-0.90;99.90
40123;DHT22;25832;45.490;4.912;2024-01-16T03:47:15;-0.90;99.90
40123;DHT22;25832;45.490;4.912;2024-01-16T03:49:40;-0.90;99.90
40123;DHT22;25832;45.490;4.912;2024-01-16T03:52:06;-0.90;99.90
40123;DHT22;25832;45.490;4.912;2024-01-16T03:54:32;-0.90;99.90
40123;DHT22;25832;45.490;4.912;2024-01-16T03:56:58;-0.90;99.90
40123;DHT22;25832;45.490;4.912;2024-01-16T03:59:23;-1.00;99.90
40123;DHT22;25832;45.490;4.912;2024-01-16T04:01:49;-1.00;99.90
40123;DHT22;25832;45.490;4.912;2024-01-16T04:04:15;-0.90;99.90
40123;DHT22;25832;45.490;4.912;2024-01-16T04:06:41;-0.90;99.90
40123;DHT22;25832;45.490;4.912;2024-01-16T04:09:08;-1.00;99.90
40123;DHT22;25832;45.490;4.912;2024-01-16T04:11:33;-1.00;99.90
40123;DHT22;25832;45.490;4.912;2024-01-16T04:13:59;-1.00;99.90
40123;DHT22;25832;45.490;4.912;2024-01-16T04:16:25;-1.00;99.90
40123;DHT22;25832;45.490;4.912;2024-01-16T04:18:51;-1.00;99.90
40123;DHT22;25832;45.490;4.912;2024-01-16T04:21:16;-1.00;99.90
40123;DHT22;25832;45.490;4.912;2024-01-16T04:23:42;-1.00;99.90
40123;DHT22;25832;45.490;4.912;2024-01-16T04:26:08;-0.90;99.90
40123;DHT22;25832;45.490;4.912;2024-01-16T04:28:34;-0.90;99.90
40123;DHT22;25832;45.490;4.912;2024-01-16T04:31:04;-0.90;99.90
40123;DHT22;25832;45.490;4.912;2024-01-16T04:33:29;-0.80;99.90
40123;DHT22;25832;45.490;4.912;2024-01-16T04:35:56;-0.80;99.90
40123;DHT22;25832;45.490;4.912;2024-01-16T04:38:21;-0.80;99.90
40123;DHT22;25832;45.490;4.912;2024-01-16T04:40:47;-0.80;99.90
40123;DHT22;25832;45.490;4.912;2024-01-16T04:43:12;-0.80;99.90
40123;DHT22;25832;45.490;4.912;2024-01-16T04:45:39;-0.80;99.90
40123;DHT22;25832;45.490;4.912;2024-01-16T04:48:05;-0.80;99.90
40123;DHT22;25832;45.490;4.912;2024-01-16T04:50:30;-0.70;99.90
40123;DHT22;25832;45.490;4.912;2024-01-16T04:52:59;-0.70;99.90
40123;DHT22;25832;45.490;4.912;2024-01-16T04:55:29;-0.80;99.90
40123;DHT22;25832;45.490;4.912;2024-01-16T04:57:55;-0.70;99.90
40123;DHT22;25832;45.490;4.912;2024-01-16T05:00:21;-0.70;99.90
40123;DHT22;25832;45.490;4.912;2024-01-16T05:02:47;-0.80;99.90
40123;DHT22;25832;45.490;4.912;2024-01-16T05:05:13;-0.80;99.90
40123;DHT22;25832;45.490;4.912;2024-01-16T05:07:39;-0.80;99.90
40123;DHT22;25832;45.490;4.912;2024-01-16T05:10:05;-0.80;99.90
40123;DHT22;25832;45.490;4.912;2024-01-16T05:12:32;-0.70;99.90
40123;DHT22;25832;45.490;4.912;2024-01-16T05:14:58;-0.70;99.90
40123;DHT22;25832;45.490;4.912;2024-01-16T05:17:24;-0.80;99.90
40123;DHT22;25832;45.490;4.912;2024-01-16T05:19:49;-0.80;99.90
40123;DHT22;25832;45.490;4.912;2024-01-16T05:22:15;-0.90;99.90
40123;DHT22;25832;45.490;4.912;2024-01-16T05:24:41;-0.80;99.90
40123;DHT22;25832;45.490;4.912;2024-01-16T05:27:06;-0.80;99.90
40123;DHT22;25832;45.490;4.912;2024-01-16T05:29:32;-0.70;99.90
40123;DHT22;25832;45.490;4.912;2024-01-16T05:31:57;-0.70;99.90
40123;DHT22;25832;45.490;4.912;2024-01-16T05:34:23;-0.80;99.90
40123;DHT22;25832;45.490;4.912;2024-01-16T05:36:49;-0.90;99.90
40123;DHT22;25832;45.490;4.912;2024-01-16T05:39:15;-1.00;99.90
40123;DHT22;25832;45.490;4.912;2024-01-16T05:41:40;-1.10;99.90
40123;DHT22;25832;45.490;4.912;2024-01-16T05:44:06;-1.10;99.90
40123;DHT22;25832;45.490;4.912;2024-01-16T05:46:32;-1.10;99.90
40123;DHT22;25832;45.490;4.912;2024-01-16T05:48:57;-1.20;99.90
40123;DHT22;25832;45.490;4.912;2024-01-16T05:51:24;-1.20;99.90
40123;DHT22;25832;45.490;4.912;2024-01-16T05:53:50;-1.20;99.90
40123;DHT22;25832;45.490;4.912;2024-01-16T05:56:16;-1.20;99.90
40123;DHT22;25832;45.490;4.912;2024-01-16T05:58:42;-1.30;99.90
40123;DHT22;25832;45.490;4.912;2024-01-16T06:01:07;-1.30;99.90
40123;DHT22;25832;45.490;4.912;2024-01-16T06:03:33;-1.30;99.90
40123;DHT22;25832;45.490;4.912;2024-01-16T06:05:58;-1.40;99.90
40123;DHT22;25832;45.490;4.912;2024-01-16T06:08:24;-1.40;99.90
40123;DHT22;25832;45.490;4.912;2024-01-16T06:10:50;-1.40;99.90
40123;DHT22;25832;45.490;4.912;2024-01-16T06:13:19;-1.30;99.90
40123;DHT22;25832;45.490;4.912;2024-01-16T06:15:45;-1.30;99.90
40123;DHT22;25832;45.490;4.912;2024-01-16T06:18:11;-1.40;99.90
40123;DHT22;25832;45.490;4.912;2024-01-16T06:20:36;-1.40;99.90
40123;DHT22;25832;45.490;4.912;2024-01-16T06:23:02;-1.40;99.90
40123;DHT22;25832;45.490;4.912;2024-01-16T06:25:28;-1.40;99.90
40123;DHT22;25832;45.490;4.912;2024-01-16T06:27:53;-1.40;99.90
40123;DHT22;25832;45.490;4.912;2024-01-16T06:30:19;-1.40;99.90
40123;DHT22;25832;45.490;4.912;2024-01-16T06:32:44;-1.50;99.90
40123;DHT22;25832;45.490;4.912;2024-01-16T06:35:12;-1.50;99.90
40123;DHT22;25832;45.490;4.912;2024-01-16T06:37:38;-1.50;99.90
40123;DHT22;25832;45.490;4.912;2024-01-16T06:40:04;-1.50;99.90
40123;DHT22;25832;45.490;4.912;2024-01-16T06:42:31;-1.60;99.90
40123;DHT22;25832;45.490;4.912;2024-01-16T06:44:56;-1.60;99.90
40123;DHT22;25832;45.490;4.912;2024-01-16T06:47:22;-1.70;99.90
40123;DHT22;25832;45.490;4.912;2024-01-16T06:49:49;-1.70;99.90
40123;DHT22;25832;45.490;4.912;2024-01-16T06:52:14;-1.70;99.90
40123;DHT22;25832;45.490;4.912;2024-01-16T06:54:40;-1.80;99.90
40123;DHT22;25832;45.490;4.912;2024-01-16T06:57:06;-1.80;99.90
40123;DHT22;25832;45.490;4.912;2024-01-16T06:59:32;-1.80;99.90
40123;DHT22;25832;45.490;4.912;2024-01-16T07:01:57;-1.80;99.90
40123;DHT22;25832;45.490;4.912;2024-01-16T07:04:23;-1.80;99.90
40123;DHT22;25832;45.490;4.912;2024-01-16T07:06:49;-1.90;99.90
40123;DHT22;25832;45.490;4.912;2024-01-16T07:09:14;-1.80;99.90
40123;DHT22;25832;45.490;4.912;2024-01-16T07:11:41;-1.90;99.90
40123;DHT22;25832;45.490;4.912;2024-01-16T07:14:09;-1.90;99.90
40123;DHT22;25832;45.490;4.912;2024-01-16T07:16:35;-1.90;99.90
40123;DHT22;25832;45.490;4.912;2024-01-16T07:19:01;-1.90;99.90
40123;DHT22;25832;45.490;4.912;2024-01-16T07:21:27;-1.90;99.90
40123;DHT22;25832;45.490;4.912;2024-01-16T07:23:53;-1.90;99.90
40123;DHT22;25832;45.490;4.912;2024-01-16T07:26:19;-1.80;99.90
40123;DHT22;25832;45.490;4.912;2024-01-16T07:28:45;-1.80;99.90
40123;DHT22;25832;45.490;4.912;2024-01-16T07:31:13;-1.80;99.90
40123;DHT22;25832;45.490;4.912;2024-01-16T07:33:39;-1.80;99.90
40123;DHT22;25832;45.490;4.912;2024-01-16T07:36:06;-1.80;99.90
40123;DHT22;25832;45.490;4.912;2024-01-16T07:38:32;-1.70;99.90
40123;DHT22;25832;45.490;4.912;2024-01-16T07:40:58;-1.70;99.90
40123;DHT22;25832;45.490;4.912;2024-01-16T07:43:23;-1.60;99.90
40123;DHT22;25832;45.490;4.912;2024-01-16T07:45:49;-1.60;99.90
40123;DHT22;25832;45.490;4.912;2024-01-16T07:48:15;-1.60;99.90
40123;DHT22;25832;45.490;4.912;2024-01-16T07:50:41;-1.60;99.90
40123;DHT22;25832;45.490;4.912;2024-01-16T07:53:06;-1.50;99.90
40123;DHT22;25832;45.490;4.912;2024-01-16T07:55:32;-1.50;99.90
40123;DHT22;25832;45.490;4.912;2024-01-16T07:57:58;-1.50;99.90
40123;DHT22;25832;45.490;4.912;2024-01-16T08:00:23;-1.50;99.90
40123;DHT22;25832;45.490;4.912;2024-01-16T08:02:49;-1.50;99.90
40123;DHT22;25832;45.490;4.912;2024-01-16T08:05:15;-1.40;99.90
40123;DHT22;25832;45.490;4.912;2024-01-16T08:07:42;-1.40;99.90
40123;DHT22;25832;45.490;4.912;2024-01-16T08:10:09;-1.40;99.90
40123;DHT22;25832;45.490;4.912;2024-01-16T08:12:34;-1.40;99.90
40123;DHT22;25832;45.490;4.912;2024-01-16T08:15:00;-1.40;99.90
40123;DHT22;25832;45.490;4.912;2024-01-16T08:17:26;-1.40;99.90
40123;DHT22;25832;45.490;4.912;2024-01-16T08:19:51;-1.40;99.90
40123;DHT22;25832;45.490;4.912;2024-01-16T08:22:17;-1.50;99.90
40123;DHT22;25832;45.490;4.912;2024-01-16T08:24:43;-1.40;99.90
40123;DHT22;25832;45.490;4.912;2024-01-16T08:27:08;-1.40;99.90
40123;DHT22;25832;45.490;4.912;2024-01-16T08:29:34;-1.40;99.90
40123;DHT22;25832;45.490;4.912;2024-01-16T08:31:59;-1.40;99.90
40123;DHT22;25832;45.490;4.912;2024-01-16T08:34:25;-1.30;99.90
40123;DHT22;25832;45.490;4.912;2024-01-16T08:36:51;-1.30;99.90
40123;DHT22;25832;45.490;4.912;2024-01-16T08:39:22;-1.30;99.90
40123;DHT22;25832;45.490;4.912;2024-01-16T08:41:48;-1.30;99.90
40123;DHT22;25832;45.490;4.912;2024-01-16T08:44:14;-1.30;99.90
40123;DHT22;25832;45.490;4.912;2024-01-16T08:46:40;-1.30;99.90
40123;DHT22;25832;45.490;4.912;2024-01-16T08:49:06;-1.30;99.90
40123;DHT22;25832;45.490;4.912;2024-01-16T08:51:31;-1.20;99.90
40123;DHT22;25832;45.490;4.912;2024-01-16T08:53:57;-1.20;99.90
40123;DHT22;25832;45.490;4.912;2024-01-16T08:56:22;-1.20;99.90
40123;DHT22;25832;45.490;4.912;2024-01-16T08:58:48;-1.20;99.90
40123;DHT22;25832;45.490;4.912;2024-01-16T09:01:15;-1.20;99.90
40123;DHT22;25832;45.490;4.912;2024-01-16T09:03:41;-1.10;99.90
40123;DHT22;25832;45.490;4.912;2024-01-16T09:06:08;-1.10;99.90
40123;DHT22;25832;45.490;4.912;2024-01-16T09:08:36;-1.10;99.90
40123;DHT22;25832;45.490;4.912;2024-01-16T09:11:01;-1.10;99.90
40123;DHT22;25832;45.490;4.912;2024-01-16T09:13:27;-1.10;99.90
40123;DHT22;25832;45.490;4.912;2024-01-16T09:15:52;-1.00;99.90
40123;DHT22;25832;45.490;4.912;2024-01-16T09:18:18;-1.00;99.90
40123;DHT22;25832;45.490;4.912;2024-01-16T09:20:44;-0.90;99.90
40123;DHT22;25832;45.490;4.912;2024-01-16T09:23:10;-0.90;99.90
40123;DHT22;25832;45.490;4.912;2024-01-16T09:25:36;-0.80;99.90
40123;DHT22;25832;45.490;4.912;2024-01-16T09:28:02;-0.90;99.90
40123;DHT22;25832;45.490;4.912;2024-01-16T09:30:30;-0.90;99.90
40123;DHT22;25832;45.490;4.912;2024-01-16T09:32:55;-0.90;99.90
40123;DHT22;25832;45.490;4.912;2024-01-16T09:35:21;-0.90;99.90
40123;DHT22;25832;45.490;4.912;2024-01-16T09:37:47;-0.80;99.90
40123;DHT22;25832;45.490;4.912;2024-01-16T09:40:13;-0.70;99.90
40123;DHT22;25832;45.490;4.912;2024-01-16T09:42:39;-0.70;99.90
40123;DHT22;25832;45.490;4.912;2024-01-16T09:45:06;-0.70;99.90
40123;DHT22;25832;45.490;4.912;2024-01-16T09:47:33;-0.70;99.90
40123;DHT22;25832;45.490;4.912;2024-01-16T09:50:02;-0.70;99.90
40123;DHT22;25832;45.490;4.912;2024-01-16T09:52:29;-0.60;99.90
40123;DHT22;25832;45.490;4.912;2024-01-16T09:54:55;-0.70;99.90
40123;DHT22;25832;45.490;4.912;2024-01-16T09:57:24;-0.70;99.90
40123;DHT22;25832;45.490;4.912;2024-01-16T09:59:51;-0.70;99.90
40123;DHT22;25832;45.490;4.912;2024-01-16T10:02:18;-0.70;99.90
40123;DHT22;25832;45.490;4.912;2024-01-16T10:04:44;-0.60;99.90
40123;DHT22;25832;45.490;4.912;2024-01-16T10:07:12;-0.70;99.90
40123;DHT22;25832;45.490;4.912;2024-01-16T10:09:39;-0.60;99.90
40123;DHT22;25832;45.490;4.912;2024-01-16T10:12:06;-0.70;99.90
40123;DHT22;25832;45.490;4.912;2024-01-16T10:14:33;-0.70;99.90
40123;DHT22;25832;45.490;4.912;2024-01-16T10:17:02;-0.60;99.90
40123;DHT22;25832;45.490;4.912;2024-01-16T10:19:31;-0.60;99.90
40123;DHT22;25832;45.490;4.912;2024-01-16T10:22:04;-0.60;99.90
40123;DHT22;25832;45.490;4.912;2024-01-16T10:24:30;-0.60;99.90
40123;DHT22;25832;45.490;4.912;2024-01-16T10:27:00;-0.60;99.90
40123;DHT22;25832;45.490;4.912;2024-01-16T10:29:26;-0.60;99.90
40123;DHT22;25832;45.490;4.912;2024-01-16T10:31:52;-0.50;99.90
40123;DHT22;25832;45.490;4.912;2024-01-16T10:34:22;-0.50;99.90
40123;DHT22;25832;45.490;4.912;2024-01-16T10:36:52;-0.40;99.90
40123;DHT22;25832;45.490;4.912;2024-01-16T10:39:23;-0.40;99.90
40123;DHT22;25832;45.490;4.912;2024-01-16T10:41:57;-0.40;99.90
40123;DHT22;25832;45.490;4.912;2024-01-16T10:44:23;-0.40;99.90
40123;DHT22;25832;45.490;4.912;2024-01-16T10:46:49;-0.50;99.90
40123;DHT22;25832;45.490;4.912;2024-01-16T10:49:14;-0.50;99.90
40123;DHT22;25832;45.490;4.912;2024-01-16T10:51:43;-0.50;99.90
40123;DHT22;25832;45.490;4.912;2024-01-16T10:54:13;-0.50;99.90
40123;DHT22;25832;45.490;4.912;2024-01-16T10:56:45;-0.40;99.90
40123;DHT22;25832;45.490;4.912;2024-01-16T10:59:21;-0.40;99.90
40123;DHT22;25832;45.490;4.912;2024-01-16T11:01:51;-0.30;99.90
40123;DHT22;25832;45.490;4.912;2024-01-16T11:04:18;-0.30;99.90
40123;DHT22;25832;45.490;4.912;2024-01-16T11:06:46;-0.20;99.90
40123;DHT22;25832;45.490;4.912;2024-01-16T11:09:13;-0.20;99.90
40123;DHT22;25832;45.490;4.912;2024-01-16T11:11:42;-0.20;99.90
40123;DHT22;25832;45.490;4.912;2024-01-16T11:14:09;-0.10;99.90
40123;DHT22;25832;45.490;4.912;2024-01-16T11:16:36;0.00;99.90
40123;DHT22;25832;45.490;4.912;2024-01-16T11:19:04;0.10;99.90
40123;DHT22;25832;45.490;4.912;2024-01-16T11:21:33;0.10;99.90
40123;DHT22;25832;45.490;4.912;2024-01-16T11:23:59;0.10;99.90
40123;DHT22;25832;45.490;4.912;2024-01-16T11:26:32;0.20;99.90
40123;DHT22;25832;45.490;4.912;2024-01-16T11:28:58;0.20;99.90
40123;DHT22;25832;45.490;4.912;2024-01-16T11:31:34;0.20;99.90
40123;DHT22;25832;45.490;4.912;2024-01-16T11:34:01;0.30;99.90
40123;DHT22;25832;45.490;4.912;2024-01-16T11:36:49;0.40;99.90
40123;DHT22;25832;45.490;4.912;2024-01-16T11:39:24;0.50;99.90
40123;DHT22;25832;45.490;4.912;2024-01-16T11:41:52;0.50;99.90
40123;DHT22;25832;45.490;4.912;2024-01-16T11:47:02;0.60;99.90
40123;DHT22;25832;45.490;4.912;2024-01-16T11:49:28;0.70;99.90
40123;DHT22;25832;45.490;4.912;2024-01-16T11:51:57;0.80;99.90
40123;DHT22;25832;45.490;4.912;2024-01-16T11:54:23;0.80;99.90
40123;DHT22;25832;45.490;4.912;2024-01-16T12:02:18;1.10;99.90
40123;DHT22;25832;45.490;4.912;2024-01-16T12:04:52;1.30;99.90
40123;DHT22;25832;45.490;4.912;2024-01-16T12:07:20;1.40;99.90
40123;DHT22;25832;45.490;4.912;2024-01-16T12:09:45;1.50;99.90
40123;DHT22;25832;45.490;4.912;2024-01-16T12:12:11;1.50;99.90
40123;DHT22;25832;45.490;4.912;2024-01-16T12:14:40;1.60;99.90
40123;DHT22;25832;45.490;4.912;2024-01-16T12:17:13;1.70;99.90
40123;DHT22;25832;45.490;4.912;2024-01-16T12:19:39;1.80;99.90
40123;DHT22;25832;45.490;4.912;2024-01-16T12:22:13;1.90;99.90
40123;DHT22;25832;45.490;4.912;2024-01-16T12:24:39;1.90;99.90
40123;DHT22;25832;45.490;4.912;2024-01-16T12:27:05;2.00;99.90
40123;DHT22;25832;45.490;4.912;2024-01-16T12:29:31;2.00;99.90
40123;DHT22;25832;45.490;4.912;2024-01-16T12:32:10;2.10;99.90
40123;DHT22;25832;45.490;4.912;2024-01-16T12:34:44;2.10;99.90
40123;DHT22;25832;45.490;4.912;2024-01-16T12:37:11;2.20;99.90
40123;DHT22;25832;45.490;4.912;2024-01-16T12:39:38;2.30;99.90
40123;DHT22;25832;45.490;4.912;2024-01-16T12:42:04;2.30;99.90
40123;DHT22;25832;45.490;4.912;2024-01-16T12:44:30;2.30;99.90
40123;DHT22;25832;45.490;4.912;2024-01-16T12:46:57;2.30;99.90
40123;DHT22;25832;45.490;4.912;2024-01-16T12:49:23;2.30;99.90
40123;DHT22;25832;45.490;4.912;2024-01-16T12:51:49;2.40;99.90
40123;DHT22;25832;45.490;4.912;2024-01-16T12:54:16;2.40;99.90
40123;DHT22;25832;45.490;4.912;2024-01-16T12:56:43;2.50;99.90
40123;DHT22;25832;45.490;4.912;2024-01-16T12:59:12;2.60;99.90
40123;DHT22;25832;45.490;4.912;2024-01-16T13:01:45;2.60;99.90
40123;DHT22;25832;45.490;4.912;2024-01-16T13:04:11;2.70;99.90
40123;DHT22;25832;45.490;4.912;2024-01-16T13:06:37;2.70;99.90
40123;DHT22;25832;45.490;4.912;2024-01-16T13:09:08;2.80;99.90
40123;DHT22;25832;45.490;4.912;2024-01-16T13:11:54;2.80;99.90
40123;DHT22;25832;45.490;4.912;2024-01-16T13:14:21;2.90;99.90
40123;DHT22;25832;45.490;4.912;2024-01-16T13:16:51;3.00;99.90
40123;DHT22;25832;45.490;4.912;2024-01-16T13:19:21;3.00;99.90
40123;DHT22;25832;45.490;4.912;2024-01-16T13:21:49;3.00;99.90
40123;DHT22;25832;45.490;4.912;2024-01-16T13:24:15;3.10;99.90
40123;DHT22;25832;45.490;4.912;2024-01-16T13:26:43;3.20;99.90
40123;DHT22;25832;45.490;4.912;2024-01-16T13:29:09;3.20;99.90
40123;DHT22;25832;45.490;4.912;2024-01-16T13:31:34;3.10;99.90
40123;DHT22;25832;45.490;4.912;2024-01-16T13:34:00;3.10;99.90
40123;DHT22;25832;45.490;4.912;2024-01-16T13:36:26;3.00;99.90
40123;DHT22;25832;45.490;4.912;2024-01-16T13:38:52;3.00;99.90
40123;DHT22;25832;45.490;4.912;2024-01-16T13:41:17;3.10;99.90
40123;DHT22;25832;45.490;4.912;2024-01-16T13:43:43;3.10;99.90
40123;DHT22;25832;45.490;4.912;2024-01-16T13:46:08;3.00;99.90
40123;DHT22;25832;45.490;4.912;2024-01-16T13:48:35;3.00;99.90
40123;DHT22;25832;45.490;4.912;2024-01-16T13:51:01;2.90;99.90
40123;DHT22;25832;45.490;4.912;2024-01-16T13:53:27;2.90;99.90
40123;DHT22;25832;45.490;4.912;2024-01-16T13:55:52;2.90;99.90
40123;DHT22;25832;45.490;4.912;2024-01-16T13:58:18;2.80;99.90
40123;DHT22;25832;45.490;4.912;2024-01-16T14:00:44;2.80;99.90
40123;DHT22;25832;45.490;4.912;2024-01-16T14:03:10;2.80;99.90
40123;DHT22;25832;45.490;4.912;2024-01-16T14:05:35;2.80;99.90
40123;DHT22;25832;45.490;4.912;2024-01-16T14:08:02;2.80;99.90
40123;DHT22;25832;45.490;4.912;2024-01-16T14:10:27;2.80;99.90
40123;DHT22;25832;45.490;4.912;2024-01-16T14:12:53;2.70;99.90
40123;DHT22;25832;45.490;4.912;2024-01-16T14:15:21;2.80;99.90
40123;DHT22;25832;45.490;4.912;2024-01-16T14:17:51;2.80;99.90
40123;DHT22;25832;45.490;4.912;2024-01-16T14:20:18;2.70;99.90
40123;DHT22;25832;45.490;4.912;2024-01-16T14:22:48;2.80;99.90
40123;DHT22;25832;45.490;4.912;2024-01-16T14:25:14;2.70;99.90
40123;DHT22;25832;45.490;4.912;2024-01-16T14:27:54;2.70;99.90
40123;DHT22;25832;45.490;4.912;2024-01-16T14:30:20;2.70;99.90
40123;DHT22;25832;45.490;4.912;2024-01-16T14:32:46;2.70;99.90
40123;DHT22;25832;45.490;4.912;2024-01-16T14:35:12;2.60;99.90
40123;DHT22;25832;45.490;4.912;2024-01-16T14:37:39;2.60;99.90
40123;DHT22;25832;45.490;4.912;2024-01-16T14:40:06;2.60;99.90
40123;DHT22;25832;45.490;4.912;2024-01-16T14:42:44;2.60;99.90
40123;DHT22;25832;45.490;4.912;2024-01-16T14:45:10;2.60;99.90
40123;DHT22;25832;45.490;4.912;2024-01-16T14:47:37;2.50;99.90
40123;DHT22;25832;45.490;4.912;2024-01-16T14:50:04;2.50;99.90
40123;DHT22;25832;45.490;4.912;2024-01-16T14:52:32;2.60;99.90
40123;DHT22;25832;45.490;4.912;2024-01-16T14:54:59;2.60;99.90
40123;DHT22;25832;45.490;4.912;2024-01-16T14:57:26;2.60;99.90
40123;DHT22;25832;45.490;4.912;2024-01-16T14:59:53;2.70;99.90
40123;DHT22;25832;45.490;4.912;2024-01-16T15:02:18;2.70;99.90
40123;DHT22;25832;45.490;4.912;2024-01-16T15:04:46;2.70;99.90
40123;DHT22;25832;45.490;4.912;2024-01-16T15:07:14;2.80;99.90
40123;DHT22;25832;45.490;4.912;2024-01-16T15:09:39;2.90;99.90
40123;DHT22;25832;45.490;4.912;2024-01-16T15:12:06;2.90;99.90
40123;DHT22;25832;45.490;4.912;2024-01-16T15:14:35;2.90;99.90
40123;DHT22;25832;45.490;4.912;2024-01-16T15:17:01;2.90;99.90
40123;DHT22;25832;45.490;4.912;2024-01-16T15:19:28;2.80;99.90
40123;DHT22;25832;45.490;4.912;2024-01-16T15:21:54;2.80;99.90
40123;DHT22;25832;45.490;4.912;2024-01-16T15:24:19;2.90;99.90
40123;DHT22;25832;45.490;4.912;2024-01-16T15:26:52;3.00;99.90
40123;DHT22;25832;45.490;4.912;2024-01-16T15:29:19;2.90;99.90
40123;DHT22;25832;45.490;4.912;2024-01-16T15:31:44;2.80;99.90
40123;DHT22;25832;45.490;4.912;2024-01-16T15:34:10;2.80;99.90
40123;DHT22;25832;45.490;4.912;2024-01-16T15:36:35;2.80;99.90
40123;DHT22;25832;45.490;4.912;2024-01-16T15:39:01;2.70;99.90